Time;durP1;ratioP1;P1;durP2;ratioP2;P2;SDS_P1;SDS_P2;PMS_P1;PMS_P2;Temp;Humidity;BMP_temperature;BMP_pressure;BME280_temperature;BME280_humidity;BME280_pressure;Samples;Min_cycle;Max_cycle;Signal;HPM_P1;HPM_P2
2023/06/12 00:00:22;;;;;;;7.03;3.15;;;17.00;99.90;;;;;;4129884;28;20093;-63
2023/06/12 00:02:23;;;;;;;3.47;2.53;;;17.00;99.90;;;;;;4129432;28;20046;-62
2023/06/12 00:04:25;;;;;;;3.17;2.60;;;17.00;99.90;;;;;;4130016;28;20030;-63
2023/06/12 00:06:28;;;;;;;2.63;1.90;;;17.00;99.90;;;;;;4129260;28;20026;-62
2023/06/12 00:08:34;;;;;;;4.60;3.45;;;17.00;99.90;;;;;;4128766;28;20058;-63
2023/06/12 00:10:35;;;;;;;4.82;2.70;;;17.00;99.90;;;;;;4129750;28;20030;-62
2023/06/12 00:12:36;;;;;;;2.50;2.30;;;17.00;99.90;;;;;;4129153;28;20543;-64
2023/06/12 00:14:38;;;;;;;2.55;2.30;;;17.00;99.90;;;;;;4129605;28;20046;-63
2023/06/12 00:16:39;;;;;;;5.28;2.63;;;17.00;99.90;;;;;;4129003;28;20026;-69
2023/06/12 00:18:40;;;;;;;3.45;2.50;;;17.10;99.90;;;;;;4129742;28;20026;-62
2023/06/12 00:20:41;;;;;;;4.72;2.95;;;17.20;99.90;;;;;;4128977;28;20026;-63
2023/06/12 00:22:43;;;;;;;6.85;2.70;;;17.20;99.90;;;;;;4129754;28;20038;-62
2023/06/12 00:24:44;;;;;;;2.78;2.55;;;17.10;99.90;;;;;;4129385;28;20038;-62
2023/06/12 00:26:45;;;;;;;6.07;3.20;;;17.10;99.90;;;;;;4129511;28;20042;-64
2023/06/12 00:28:46;;;;;;;4.93;3.33;;;17.10;99.90;;;;;;4128487;28;20042;-62
2023/06/12 00:30:48;;;;;;;4.32;2.50;;;17.00;99.90;;;;;;4129685;28;20454;-62
2023/06/12 00:32:49;;;;;;;3.65;3.10;;;17.00;99.90;;;;;;4128617;28;20096;-62
2023/06/12 00:34:50;;;;;;;3.97;3.53;;;16.90;99.90;;;;;;4129847;28;20027;-66
2023/06/12 00:36:51;;;;;;;3.58;2.72;;;16.90;99.90;;;;;;4128946;28;20026;-62
2023/06/12 00:38:53;;;;;;;4.72;3.10;;;16.90;99.90;;;;;;4129064;28;20034;-62
2023/06/12 00:40:54;;;;;;;3.63;2.85;;;16.90;99.90;;;;;;4129360;28;20101;-62
2023/06/12 00:42:55;;;;;;;5.20;3.30;;;16.90;99.90;;;;;;4128871;28;20043;-62
2023/06/12 00:44:56;;;;;;;3.83;3.35;;;16.90;99.90;;;;;;4129494;28;20542;-62
2023/06/12 00:46:57;;;;;;;3.97;3.58;;;16.80;99.90;;;;;;4128591;28;20384;-62
2023/06/12 00:49:01;;;;;;;6.50;3.38;;;16.80;99.90;;;;;;4129365;28;20038;-65
2023/06/12 00:51:02;;;;;;;5.05;3.50;;;16.80;99.90;;;;;;4128396;28;20026;-62
2023/06/12 00:53:03;;;;;;;7.47;3.60;;;16.80;99.90;;;;;;4129573;28;20038;-63
2023/06/12 00:55:06;;;;;;;6.20;3.05;;;16.80;99.90;;;;;;4128983;28;20023;-62
2023/06/12 00:57:07;;;;;;;5.20;2.75;;;16.80;99.90;;;;;;4128929;28;20097;-63
2023/06/12 00:59:09;;;;;;;5.18;2.80;;;16.80;99.90;;;;;;4126415;28;20042;-62
2023/06/12 01:01:10;;;;;;;5.07;2.80;;;16.80;99.90;;;;;;4128982;28;20042;-63
2023/06/12 01:03:13;;;;;;;2.90;2.67;;;16.80;99.90;;;;;;4128098;28;20109;-69
2023/06/12 01:05:22;;;;;;;3.08;2.75;;;16.80;99.90;;;;;;4127724;28;20093;-62
2023/06/12 01:07:40;;;;;;;3.40;2.00;;;16.80;99.90;;;;;;4128104;28;20023;-69
2023/06/12 01:10:21;;;;;;;3.05;1.95;;;16.70;99.90;;;;;;4129254;28;20105;-62
2023/06/12 01:12:23;;;;;;;4.05;1.85;;;16.70;99.90;;;;;;4110319;28;20511;-62
2023/06/12 01:14:26;;;;;;;2.90;2.00;;;16.70;99.90;;;;;;4121837;28;20038;-64
2023/06/12 01:16:27;;;;;;;3.35;2.20;;;16.70;99.90;;;;;;4128286;28;20080;-62
2023/06/12 01:18:29;;;;;;;2.10;1.95;;;16.70;99.90;;;;;;4129284;28;20019;-62
2023/06/12 01:20:30;;;;;;;2.88;2.42;;;16.70;99.90;;;;;;4128240;28;20093;-62
2023/06/12 01:22:37;;;;;;;5.63;2.22;;;16.70;99.90;;;;;;4129062;28;20101;-63
2023/06/12 01:24:56;;;;;;;4.03;2.55;;;16.70;99.90;;;;;;4128592;28;20104;-62
2023/06/12 01:27:26;;;;;;;4.07;3.17;;;16.70;99.90;;;;;;4129428;28;20034;-62
2023/06/12 01:29:47;;;;;;;8.82;3.47;;;16.70;99.90;;;;;;4128192;28;20053;-62
2023/06/12 01:31:56;;;;;;;4.30;2.22;;;16.60;99.90;;;;;;4129363;28;20364;-63
2023/06/12 01:34:09;;;;;;;3.63;1.90;;;16.60;99.90;;;;;;4127742;28;20050;-62
2023/06/12 01:36:15;;;;;;;3.88;2.22;;;16.60;99.90;;;;;;4129295;28;20756;-62
2023/06/12 01:38:17;;;;;;;4.20;2.92;;;16.60;99.90;;;;;;4127565;28;20054;-63
2023/06/12 01:40:19;;;;;;;2.13;1.88;;;16.60;99.90;;;;;;4129210;28;20100;-62
2023/06/12 01:42:22;;;;;;;2.20;1.85;;;16.60;99.90;;;;;;4128019;28;20038;-62
2023/06/12 01:44:23;;;;;;;2.67;2.03;;;16.50;99.90;;;;;;4128829;28;20109;-62
2023/06/12 01:46:24;;;;;;;1.63;1.50;;;16.50;99.90;;;;;;4128070;28;20487;-61
2023/06/12 01:48:26;;;;;;;2.72;2.00;;;16.50;99.90;;;;;;4129032;28;20057;-62
2023/06/12 01:50:27;;;;;;;1.90;1.80;;;16.50;99.90;;;;;;4128086;28;20077;-62
2023/06/12 01:52:28;;;;;;;1.98;1.80;;;16.40;99.90;;;;;;4128555;28;20116;-63
2023/06/12 01:54:33;;;;;;;2.13;1.88;;;16.40;99.90;;;;;;4128907;28;20545;-62
2023/06/12 01:56:34;;;;;;;4.00;2.00;;;16.40;99.90;;;;;;4128430;28;20026;-63
2023/06/12 01:58:36;;;;;;;1.98;1.73;;;16.40;99.90;;;;;;4128876;28;20085;-62
2023/06/12 02:00:37;;;;;;;3.58;1.90;;;16.30;99.90;;;;;;4127724;28;20137;-65
2023/06/12 02:02:39;;;;;;;1.98;1.73;;;16.30;99.90;;;;;;4128780;28;20455;-62
2023/06/12 02:04:41;;;;;;;1.85;1.70;;;16.30;99.90;;;;;;4127868;28;20545;-63
2023/06/12 02:06:42;;;;;;;2.55;1.92;;;16.20;99.90;;;;;;4128793;28;20034;-63
2023/06/12 02:08:43;;;;;;;2.67;2.17;;;16.30;99.90;;;;;;4127740;28;20114;-64
2023/06/12 02:10:45;;;;;;;3.15;1.98;;;16.30;99.90;;;;;;4128738;28;20038;-62
2023/06/12 02:12:46;;;;;;;3.60;2.08;;;16.20;99.90;;;;;;4127534;28;20047;-62
2023/06/12 02:14:47;;;;;;;2.50;2.00;;;16.20;99.90;;;;;;4129061;28;20030;-62
2023/06/12 02:16:48;;;;;;;3.75;1.92;;;16.20;99.90;;;;;;4130263;28;20065;-62
2023/06/12 02:18:49;;;;;;;5.70;1.60;;;16.20;99.90;;;;;;4131509;28;20039;-63
2023/06/12 02:20:50;;;;;;;2.85;1.90;;;16.20;99.90;;;;;;4130522;28;20093;-62
2023/06/12 02:22:51;;;;;;;2.83;1.90;;;16.10;99.90;;;;;;4131061;28;20495;-62
2023/06/12 02:24:53;;;;;;;1.60;1.50;;;16.10;99.90;;;;;;4146489;28;20046;-62
2023/06/12 02:26:54;;;;;;;3.03;1.95;;;16.10;99.90;;;;;;4130554;28;20054;-61
2023/06/12 02:29:11;;;;;;;2.45;2.10;;;16.10;99.90;;;;;;4129518;28;20491;-61
2023/06/12 02:31:12;;;;;;;2.30;1.70;;;16.10;99.90;;;;;;4131081;28;20435;-61
2023/06/12 02:33:14;;;;;;;6.10;2.00;;;16.20;99.90;;;;;;4131302;28;20077;-61
2023/06/12 02:35:16;;;;;;;3.58;2.40;;;16.20;99.90;;;;;;4130808;28;20093;-62
2023/06/12 02:37:17;;;;;;;2.92;1.73;;;16.20;99.90;;;;;;4129600;28;20581;-61
2023/06/12 02:39:18;;;;;;;4.00;1.85;;;16.20;99.90;;;;;;4130659;28;20752;-61
2023/06/12 02:41:19;;;;;;;3.05;1.88;;;16.20;99.90;;;;;;4131225;28;20460;-62
2023/06/12 02:43:20;;;;;;;2.50;1.90;;;16.20;99.90;;;;;;4130305;28;20097;-62
2023/06/12 02:45:23;;;;;;;2.55;1.85;;;16.30;99.90;;;;;;4131661;28;20031;-61
2023/06/12 02:47:24;;;;;;;4.38;2.30;;;16.30;99.90;;;;;;4130455;28;20038;-62
2023/06/12 02:49:27;;;;;;;2.88;1.77;;;16.30;99.90;;;;;;4131553;28;20097;-62
2023/06/12 02:51:28;;;;;;;2.83;1.90;;;16.30;99.90;;;;;;4128622;28;20042;-62
2023/06/12 02:53:31;;;;;;;3.78;1.90;;;16.30;99.90;;;;;;4131309;28;20039;-62
2023/06/12 02:55:32;;;;;;;2.92;1.80;;;16.30;99.90;;;;;;4130630;28;20556;-61
2023/06/12 02:57:34;;;;;;;3.75;1.55;;;16.30;99.90;;;;;;4131189;28;20541;-68
2023/06/12 02:59:35;;;;;;;3.75;2.10;;;16.30;99.90;;;;;;4130165;28;20526;-61
2023/06/12 03:01:36;;;;;;;2.85;1.60;;;16.30;99.90;;;;;;4130808;28;20109;-61
2023/06/12 03:03:39;;;;;;;1.90;1.42;;;16.40;99.90;;;;;;4130643;28;20458;-61
2023/06/12 03:05:41;;;;;;;1.48;1.38;;;16.40;99.90;;;;;;4130302;28;20030;-61
2023/06/12 03:07:43;;;;;;;1.88;1.77;;;16.30;99.90;;;;;;4130851;28;20352;-61
2023/06/12 03:09:44;;;;;;;3.85;2.38;;;16.30;99.90;;;;;;4129719;28;20462;-62
2023/06/12 03:11:53;;;;;;;2.65;1.70;;;16.30;99.90;;;;;;4131253;28;20031;-61
2023/06/12 03:13:54;;;;;;;1.65;1.55;;;16.30;99.90;;;;;;4129909;28;20133;-62
2023/06/12 03:15:56;;;;;;;3.72;1.90;;;16.30;99.90;;;;;;4130972;28;20022;-62
2023/06/12 03:17:57;;;;;;;4.88;1.90;;;16.30;99.90;;;;;;4129923;28;20030;-61
2023/06/12 03:19:58;;;;;;;2.17;1.98;;;16.30;99.90;;;;;;4130561;28;20483;-61
2023/06/12 03:21:59;;;;;;;5.15;1.80;;;16.30;99.90;;;;;;4129827;28;20077;-61
2023/06/12 03:24:00;;;;;;;4.22;2.13;;;16.20;99.90;;;;;;4130827;28;20365;-61
2023/06/12 03:26:01;;;;;;;2.92;2.10;;;16.20;99.90;;;;;;4130178;28;20224;-62
2023/06/12 03:28:03;;;;;;;4.63;2.40;;;16.10;99.90;;;;;;4145311;28;20429;-61
2023/06/12 03:30:05;;;;;;;1.80;1.70;;;16.10;99.90;;;;;;4129179;28;20105;-61
2023/06/12 03:32:06;;;;;;;2.17;1.85;;;16.10;99.90;;;;;;4130664;28;20069;-61
2023/06/12 03:34:08;;;;;;;2.05;1.88;;;16.10;99.90;;;;;;4129557;28;20065;-62
2023/06/12 03:36:11;;;;;;;2.72;1.98;;;16.10;99.90;;;;;;4130213;28;20833;-61
2023/06/12 03:38:12;;;;;;;4.55;1.98;;;16.10;99.90;;;;;;4129932;28;20014;-61
2023/06/12 03:40:13;;;;;;;2.35;1.77;;;16.10;99.90;;;;;;4129673;28;20550;-61
2023/06/12 03:42:15;;;;;;;1.35;1.25;;;16.10;99.90;;;;;;4128549;28;20073;-62
2023/06/12 03:44:16;;;;;;;3.08;1.40;;;16.10;99.90;;;;;;4129250;28;20434;-61
2023/06/12 03:46:17;;;;;;;2.53;1.98;;;16.10;99.90;;;;;;4130618;28;20089;-61
2023/06/12 03:48:18;;;;;;;3.17;1.33;;;16.10;99.90;;;;;;4128775;28;20439;-61
2023/06/12 03:50:19;;;;;;;2.10;1.65;;;16.10;99.90;;;;;;4130641;28;20665;-62
2023/06/12 03:52:21;;;;;;;4.88;1.40;;;16.10;99.90;;;;;;4129084;28;20113;-61
2023/06/12 03:54:22;;;;;;;3.28;1.50;;;16.10;99.90;;;;;;4130328;28;20483;-63
2023/06/12 03:56:23;;;;;;;1.58;1.48;;;16.20;99.90;;;;;;4129746;28;20046;-62
2023/06/12 03:58:24;;;;;;;1.13;1.08;;;16.20;99.90;;;;;;4129981;28;20046;-64
2023/06/12 04:00:25;;;;;;;2.05;1.08;;;16.20;99.90;;;;;;4129104;28;20093;-61
2023/06/12 04:02:26;;;;;;;2.22;1.10;;;16.20;99.90;;;;;;4130268;28;20034;-62
2023/06/12 04:04:27;;;;;;;2.10;1.00;;;16.20;99.90;;;;;;4129040;28;20133;-61
2023/06/12 04:06:29;;;;;;;1.55;1.20;;;16.20;99.90;;;;;;4129416;28;20038;-62
2023/06/12 04:08:30;;;;;;;1.45;0.85;;;16.20;99.90;;;;;;4129249;28;20073;-63
2023/06/12 04:10:33;;;;;;;1.42;0.80;;;16.30;99.90;;;;;;4144326;28;20859;-62
2023/06/12 04:12:34;;;;;;;2.67;1.00;;;16.20;99.90;;;;;;4129594;28;20790;-61
2023/06/12 04:14:35;;;;;;;2.90;1.38;;;16.20;99.90;;;;;;4127083;28;20495;-61
2023/06/12 04:16:36;;;;;;;2.95;1.08;;;16.30;99.90;;;;;;4129808;28;20050;-62
2023/06/12 04:18:38;;;;;;;2.55;0.63;;;16.30;99.90;;;;;;4128770;28;20034;-62
2023/06/12 04:20:40;;;;;;;1.35;0.60;;;16.30;99.90;;;;;;4129799;28;20050;-62
2023/06/12 04:22:41;;;;;;;1.00;0.77;;;16.20;99.90;;;;;;4128680;28;20114;-62
2023/06/12 04:24:43;;;;;;;4.07;1.08;;;16.30;99.90;;;;;;4129544;28;20113;-62
2023/06/12 04:26:46;;;;;;;0.68;0.68;;;16.30;99.90;;;;;;4128237;28;20089;-63
2023/06/12 04:28:48;;;;;;;1.30;0.95;;;16.20;99.90;;;;;;4129059;28;20042;-63
2023/06/12 04:30:51;;;;;;;1.10;0.70;;;16.20;99.90;;;;;;4128531;28;20026;-65
2023/06/12 04:32:56;;;;;;;1.10;0.70;;;16.20;99.90;;;;;;4129756;28;20050;-63
2023/06/12 04:34:57;;;;;;;1.15;0.57;;;16.20;99.90;;;;;;4128546;28;20022;-62
2023/06/12 04:36:58;;;;;;;1.45;0.63;;;16.30;99.90;;;;;;4129313;28;20034;-62
2023/06/12 04:38:59;;;;;;;1.67;1.33;;;16.30;99.90;;;;;;4128363;28;20034;-62
2023/06/12 04:41:00;;;;;;;0.90;0.70;;;16.20;99.90;;;;;;4129044;28;20039;-63
2023/06/12 04:43:06;;;;;;;2.00;0.93;;;16.30;99.90;;;;;;4128928;28;20030;-67
2023/06/12 04:45:09;;;;;;;1.50;0.85;;;16.30;99.90;;;;;;4128616;28;20089;-68
2023/06/12 04:47:11;;;;;;;2.58;0.50;;;16.20;99.90;;;;;;4143463;28;20105;-68
2023/06/12 04:49:13;;;;;;;0.82;0.80;;;16.30;99.90;;;;;;4128442;28;20449;-62
2023/06/12 04:51:14;;;;;;;3.22;0.90;;;16.20;99.90;;;;;;4129481;28;20022;-62
2023/06/12 04:53:17;;;;;;;1.23;1.13;;;16.30;99.90;;;;;;4128050;28;20030;-68
2023/06/12 04:55:20;;;;;;;3.28;1.08;;;16.30;99.90;;;;;;4129205;28;20050;-62
2023/06/12 04:57:21;;;;;;;2.80;0.70;;;16.20;99.90;;;;;;4127944;28;20046;-65
2023/06/12 04:59:22;;;;;;;2.45;0.85;;;16.20;99.90;;;;;;4129429;28;20030;-62
2023/06/12 05:01:23;;;;;;;1.45;0.90;;;16.10;99.90;;;;;;4128236;28;20038;-63
2023/06/12 05:03:25;;;;;;;1.80;0.60;;;16.10;99.90;;;;;;4128950;28;20098;-64
2023/06/12 05:05:27;;;;;;;5.55;1.23;;;16.10;99.90;;;;;;4128239;28;20483;-60
2023/06/12 05:07:29;;;;;;;3.80;0.60;;;16.10;99.90;;;;;;4129270;28;20084;-62
2023/06/12 05:09:30;;;;;;;0.98;0.68;;;16.10;99.90;;;;;;4127611;28;20050;-62
2023/06/12 05:11:31;;;;;;;0.45;0.35;;;16.10;99.90;;;;;;4128806;28;20026;-66
2023/06/12 05:13:32;;;;;;;2.40;0.50;;;16.10;99.90;;;;;;4127774;28;20046;-64
2023/06/12 05:15:34;;;;;;;2.42;0.50;;;16.00;99.90;;;;;;4127951;28;20030;-63
2023/06/12 05:17:35;;;;;;;0.75;0.40;;;15.90;99.90;;;;;;4127881;28;20046;-62
2023/06/12 05:19:38;;;;;;;0.95;0.55;;;15.80;99.90;;;;;;4127385;28;20050;-62
2023/06/12 05:21:41;;;;;;;4.28;0.60;;;15.80;99.90;;;;;;4128560;28;20022;-62
2023/06/12 05:23:42;;;;;;;1.50;0.50;;;15.80;99.90;;;;;;4127530;28;20084;-64
2023/06/12 05:25:43;;;;;;;0.80;0.40;;;15.70;99.90;;;;;;4129343;28;20084;-64
2023/06/12 05:27:44;;;;;;;2.03;0.52;;;15.80;99.90;;;;;;4127841;28;20089;-63
2023/06/12 05:29:45;;;;;;;1.73;0.43;;;15.70;99.90;;;;;;4128867;28;20392;-62
2023/06/12 05:31:47;;;;;;;1.63;0.45;;;15.80;99.90;;;;;;4127895;28;20625;-62
2023/06/12 05:33:48;;;;;;;2.50;0.10;;;15.80;99.90;;;;;;4128634;28;20031;-62
2023/06/12 05:35:49;;;;;;;1.00;0.35;;;15.80;99.90;;;;;;4127850;28;20026;-62
2023/06/12 05:37:51;;;;;;;1.02;0.60;;;15.70;99.90;;;;;;4128981;28;20026;-62
2023/06/12 05:39:53;;;;;;;0.50;0.20;;;15.70;99.90;;;;;;4127893;28;20046;-62
2023/06/12 05:41:54;;;;;;;2.92;0.30;;;15.60;99.90;;;;;;4128745;28;20038;-65
2023/06/12 05:43:55;;;;;;;2.47;0.65;;;15.70;99.90;;;;;;4127467;28;20100;-62
2023/06/12 05:45:56;;;;;;;1.40;0.43;;;15.70;99.90;;;;;;4143220;28;20030;-62
2023/06/12 05:47:57;;;;;;;2.75;0.20;;;15.70;99.90;;;;;;4128388;28;20065;-62
2023/06/12 05:49:58;;;;;;;0.25;0.20;;;15.70;99.90;;;;;;4127592;28;20093;-62
2023/06/12 05:52:02;;;;;;;2.42;0.50;;;15.70;99.90;;;;;;4131552;28;20034;-66
2023/06/12 05:54:03;;;;;;;2.45;0.20;;;15.60;99.90;;;;;;4130903;28;20030;-62
2023/06/12 05:56:04;;;;;;;0.82;0.20;;;15.60;99.90;;;;;;4132387;28;20042;-62
2023/06/12 05:58:05;;;;;;;0.50;0.10;;;15.70;99.90;;;;;;4130898;28;20164;-63
2023/06/12 06:00:07;;;;;;;2.50;0.30;;;15.70;99.90;;;;;;4132101;28;20545;-62
2023/06/12 06:02:08;;;;;;;3.63;0.20;;;15.70;99.90;;;;;;4130876;28;20034;-62
2023/06/12 06:04:11;;;;;;;0.40;0.30;;;15.70;99.90;;;;;;4131428;28;20128;-62
2023/06/12 06:06:13;;;;;;;2.70;0.20;;;15.80;99.90;;;;;;4129986;28;20096;-62
2023/06/12 06:08:14;;;;;;;2.88;0.20;;;15.80;99.90;;;;;;4130800;28;20050;-63
2023/06/12 06:10:15;;;;;;;1.20;0.25;;;15.80;99.90;;;;;;4130471;28;20035;-62
2023/06/12 06:12:16;;;;;;;3.05;0.28;;;15.70;99.90;;;;;;4131691;28;20065;-62
2023/06/12 06:14:18;;;;;;;0.32;0.20;;;15.60;99.90;;;;;;4130814;28;20506;-62
2023/06/12 06:16:20;;;;;;;0.50;0.15;;;15.60;99.90;;;;;;4131527;28;20030;-63
2023/06/12 06:18:21;;;;;;;2.17;0.20;;;15.60;99.90;;;;;;4131035;28;20430;-62
2023/06/12 06:20:22;;;;;;;0.85;0.20;;;15.60;99.90;;;;;;4131027;28;20080;-63
2023/06/12 06:22:24;;;;;;;0.43;0.17;;;15.50;99.90;;;;;;4131171;28;20026;-62
2023/06/12 06:24:25;;;;;;;4.03;0.70;;;15.50;99.90;;;;;;4129877;28;20101;-62
2023/06/12 06:26:27;;;;;;;0.57;0.10;;;15.50;99.90;;;;;;4132082;28;20034;-62
2023/06/12 06:28:28;;;;;;;0.43;0.15;;;15.50;99.90;;;;;;4130429;28;20026;-62
2023/06/12 06:30:29;;;;;;;1.25;0.10;;;15.40;99.90;;;;;;4131217;28;20438;-62
2023/06/12 06:32:30;;;;;;;0.28;0.10;;;15.40;99.90;;;;;;4130560;28;20022;-62
2023/06/12 06:34:32;;;;;;;0.43;0.10;;;15.30;99.90;;;;;;4131461;28;20545;-61
2023/06/12 06:36:33;;;;;;;1.15;0.10;;;15.40;99.90;;;;;;4129820;28;20046;-62
2023/06/12 06:38:34;;;;;;;0.13;0.00;;;15.30;99.90;;;;;;4131090;28;20042;-62
2023/06/12 06:40:35;;;;;;;0.40;0.10;;;15.30;99.90;;;;;;4128605;28;20042;-63
2023/06/12 06:42:36;;;;;;;0.15;0.15;;;15.30;99.90;;;;;;4131350;28;20031;-64
2023/06/12 06:44:38;;;;;;;0.20;0.10;;;15.30;99.90;;;;;;4130087;28;20050;-64
2023/06/12 06:46:39;;;;;;;1.38;0.10;;;15.20;99.90;;;;;;4129999;28;20038;-63
2023/06/12 06:48:40;;;;;;;1.52;0.13;;;15.30;99.90;;;;;;4130273;28;20097;-63
2023/06/12 06:50:41;;;;;;;0.20;0.10;;;15.30;99.90;;;;;;4130388;28;20084;-63
2023/06/12 06:52:43;;;;;;;2.25;0.50;;;15.30;99.90;;;;;;4130591;28;20018;-62
2023/06/12 06:54:44;;;;;;;1.45;0.15;;;15.30;99.90;;;;;;4129771;28;20507;-65
2023/06/12 06:56:47;;;;;;;0.82;0.15;;;15.30;99.90;;;;;;4131448;28;20038;-63
2023/06/12 06:58:48;;;;;;;0.70;0.15;;;15.30;99.90;;;;;;4129235;28;20400;-63
2023/06/12 07:00:49;;;;;;;2.05;0.20;;;15.30;99.90;;;;;;4145830;28;20014;-63
2023/06/12 07:02:50;;;;;;;2.03;0.40;;;15.30;99.90;;;;;;4129494;28;20089;-62
2023/06/12 07:04:52;;;;;;;1.10;0.20;;;15.30;99.90;;;;;;4130281;28;20109;-62
2023/06/12 07:06:53;;;;;;;0.73;0.50;;;15.20;99.90;;;;;;4129533;28;20034;-61
2023/06/12 07:08:54;;;;;;;1.05;0.20;;;15.10;99.90;;;;;;4130619;28;20479;-62
2023/06/12 07:10:56;;;;;;;1.55;0.10;;;15.10;99.90;;;;;;4129771;28;20035;-62
2023/06/12 07:12:57;;;;;;;5.15;0.60;;;15.10;99.90;;;;;;4130553;28;20109;-63
2023/06/12 07:14:58;;;;;;;1.08;0.25;;;15.10;99.90;;;;;;4129628;28;20104;-62
2023/06/12 07:16:59;;;;;;;0.77;0.20;;;15.10;99.90;;;;;;4130344;28;20034;-62
2023/06/12 07:19:00;;;;;;;4.45;0.20;;;15.10;99.90;;;;;;4129609;28;20054;-63
2023/06/12 07:21:03;;;;;;;1.23;0.38;;;15.20;99.90;;;;;;4129600;28;20042;-62
2023/06/12 07:23:04;;;;;;;0.75;0.25;;;15.20;99.90;;;;;;4129581;28;20081;-63
2023/06/12 07:25:08;;;;;;;2.63;0.30;;;15.20;99.90;;;;;;4129740;28;20034;-62
2023/06/12 07:27:10;;;;;;;0.65;0.28;;;15.30;99.90;;;;;;4130489;28;20130;-62
2023/06/12 07:29:11;;;;;;;2.50;0.20;;;15.20;99.90;;;;;;4129407;28;20800;-62
2023/06/12 07:31:12;;;;;;;2.20;0.20;;;15.30;99.90;;;;;;4130189;28;20022;-61
2023/06/12 07:33:14;;;;;;;1.60;0.20;;;15.20;99.90;;;;;;4129250;28;20080;-62
2023/06/12 07:35:16;;;;;;;0.30;0.20;;;15.20;99.90;;;;;;4130415;28;20038;-66
2023/06/12 07:37:20;;;;;;;0.13;0.10;;;15.20;99.90;;;;;;4129218;28;20030;-62
2023/06/12 07:39:21;;;;;;;0.75;0.10;;;15.10;99.90;;;;;;4129343;28;20038;-62
2023/06/12 07:41:23;;;;;;;2.78;0.20;;;15.10;99.90;;;;;;4127214;28;20034;-62
2023/06/12 07:43:24;;;;;;;2.22;0.20;;;15.00;99.90;;;;;;4130437;28;20136;-62
2023/06/12 07:45:25;;;;;;;1.35;0.30;;;15.00;99.90;;;;;;4129072;28;20042;-64
2023/06/12 07:47:26;;;;;;;1.58;0.30;;;15.10;99.90;;;;;;4130062;28;20534;-62
2023/06/12 07:49:27;;;;;;;1.02;0.20;;;15.10;99.90;;;;;;4128655;28;20046;-62
2023/06/12 07:51:28;;;;;;;3.65;0.50;;;15.00;99.90;;;;;;4129369;28;20491;-62
2023/06/12 07:53:30;;;;;;;4.00;0.30;;;15.10;99.90;;;;;;4129318;28;20035;-63
2023/06/12 07:55:31;;;;;;;3.13;0.30;;;15.10;99.90;;;;;;4144181;28;20092;-67
2023/06/12 07:57:33;;;;;;;0.57;0.10;;;15.10;99.90;;;;;;4129720;28;20050;-63
2023/06/12 07:59:35;;;;;;;2.72;0.30;;;15.00;99.90;;;;;;4128305;28;20097;-65
2023/06/12 08:01:36;;;;;;;0.57;0.20;;;15.00;99.90;;;;;;4129809;28;20030;-61
2023/06/12 08:03:39;;;;;;;3.35;0.08;;;14.90;99.90;;;;;;4128948;28;20038;-64
2023/06/12 08:05:40;;;;;;;0.30;0.10;;;14.80;99.90;;;;;;4130061;28;20089;-62
2023/06/12 08:07:41;;;;;;;0.32;0.20;;;14.80;99.90;;;;;;4128811;28;20372;-62
2023/06/12 08:09:42;;;;;;;1.08;0.10;;;14.80;99.90;;;;;;4129943;28;20092;-66
2023/06/12 08:11:43;;;;;;;0.10;0.10;;;14.90;99.90;;;;;;4126633;28;20042;-63
2023/06/12 08:13:44;;;;;;;3.08;0.55;;;15.00;99.90;;;;;;4129223;28;20081;-70
2023/06/12 08:15:46;;;;;;;0.75;0.20;;;15.00;99.90;;;;;;4128053;28;20089;-62
2023/06/12 08:17:47;;;;;;;3.53;0.28;;;15.10;99.90;;;;;;4128864;28;20045;-65
2023/06/12 08:19:48;;;;;;;2.17;0.30;;;15.20;99.90;;;;;;4128633;28;20018;-62
2023/06/12 08:21:49;;;;;;;0.57;0.20;;;15.10;99.90;;;;;;4128596;28;20081;-64
2023/06/12 08:23:51;;;;;;;1.23;0.10;;;15.10;99.90;;;;;;4128990;28;20077;-68
2023/06/12 08:25:52;;;;;;;0.57;0.13;;;15.10;99.90;;;;;;4128432;28;20105;-63
2023/06/12 08:27:54;;;;;;;0.40;0.20;;;15.00;99.90;;;;;;4129113;28;20114;-63
2023/06/12 08:29:55;;;;;;;2.17;0.65;;;15.00;99.90;;;;;;4128601;28;20034;-69
2023/06/12 08:31:57;;;;;;;2.05;0.20;;;15.00;99.90;;;;;;4129593;28;20034;-67
2023/06/12 08:33:58;;;;;;;0.70;0.20;;;15.10;99.90;;;;;;4128343;28;20084;-61
2023/06/12 08:35:59;;;;;;;0.35;0.28;;;15.10;99.90;;;;;;4129054;28;20097;-62
2023/06/12 08:38:01;;;;;;;0.95;0.20;;;15.00;99.90;;;;;;4128174;28;20054;-63
2023/06/12 08:40:02;;;;;;;0.30;0.17;;;15.10;99.90;;;;;;4129153;28;20434;-62
2023/06/12 08:42:17;;;;;;;0.40;0.10;;;15.10;99.90;;;;;;4127996;28;20042;-62
2023/06/12 08:44:21;;;;;;;0.20;0.10;;;15.00;99.90;;;;;;4129285;28;20038;-70
2023/06/12 08:46:22;;;;;;;1.08;0.40;;;15.00;99.90;;;;;;4128265;28;20026;-68
2023/06/12 08:48:26;;;;;;;0.35;0.25;;;15.00;99.90;;;;;;4128691;28;20034;-61
2023/06/12 08:50:28;;;;;;;1.77;0.10;;;15.00;99.90;;;;;;4127641;28;20038;-67
2023/06/12 08:52:32;;;;;;;1.40;0.20;;;15.00;99.90;;;;;;4128992;28;20487;-64
2023/06/12 08:54:34;;;;;;;0.20;0.20;;;15.00;99.90;;;;;;4127663;28;20488;-67
2023/06/12 08:56:37;;;;;;;0.10;0.00;;;14.90;99.90;;;;;;4129424;28;20026;-68
2023/06/12 08:58:39;;;;;;;0.10;0.10;;;14.90;99.90;;;;;;4128489;28;20073;-62
2023/06/12 09:00:40;;;;;;;0.10;0.10;;;14.80;99.90;;;;;;4128704;28;20014;-61
2023/06/12 09:02:49;;;;;;;0.45;0.20;;;14.80;99.90;;;;;;4128521;28;20068;-61
2023/06/12 09:05:02;;;;;;;0.10;0.10;;;14.80;99.90;;;;;;4128609;28;20108;-61
2023/06/12 09:07:03;;;;;;;0.43;0.20;;;14.70;99.90;;;;;;4128481;28;20533;-66
2023/06/12 09:09:05;;;;;;;0.30;0.10;;;14.70;99.90;;;;;;4128058;28;20050;-64
2023/06/12 09:11:06;;;;;;;2.05;0.75;;;14.70;99.90;;;;;;4129107;28;20030;-63
2023/06/12 09:13:10;;;;;;;0.75;0.17;;;14.70;99.90;;;;;;4128068;28;20034;-70
2023/06/12 09:15:18;;;;;;;0.80;0.22;;;14.70;99.90;;;;;;4128410;28;20053;-63
2023/06/12 09:17:20;;;;;;;0.55;0.32;;;14.70;99.90;;;;;;4127476;28;20046;-66
2023/06/12 09:19:21;;;;;;;0.73;0.28;;;14.70;99.90;;;;;;4128774;28;20108;-69
2023/06/12 09:21:24;;;;;;;8.32;2.90;;;14.70;99.90;;;;;;4127627;28;20034;-68
2023/06/12 09:23:25;;;;;;;4.70;1.90;;;14.70;99.90;;;;;;4128158;28;20117;-62
2023/06/12 09:25:41;;;;;;;2.78;1.95;;;14.80;99.90;;;;;;4127399;28;20428;-69
2023/06/12 09:27:43;;;;;;;1.48;0.40;;;14.80;99.90;;;;;;4129183;28;20031;-63
2023/06/12 09:29:45;;;;;;;0.68;0.47;;;14.80;99.90;;;;;;4127580;28;20038;-66
2023/06/12 09:31:51;;;;;;;1.20;1.10;;;14.70;99.90;;;;;;4128970;28;20035;-67
2023/06/12 09:33:53;;;;;;;1.48;0.52;;;14.70;99.90;;;;;;4127173;28;20038;-62
2023/06/12 09:35:54;;;;;;;2.08;0.70;;;14.80;99.90;;;;;;4128377;28;20097;-62
2023/06/12 09:37:56;;;;;;;1.75;0.65;;;14.80;99.90;;;;;;4127097;28;20457;-65
2023/06/12 09:40:15;;;;;;;0.73;0.73;;;14.80;99.90;;;;;;4128862;28;20093;-64
2023/06/12 09:42:21;;;;;;;0.95;0.32;;;14.90;99.90;;;;;;4127350;28;20038;-63
2023/06/12 09:44:24;;;;;;;2.05;0.75;;;14.90;99.90;;;;;;4128828;28;20034;-63
2023/06/12 09:46:26;;;;;;;2.70;0.60;;;14.90;99.90;;;;;;4127306;28;20108;-65
2023/06/12 09:48:35;;;;;;;1.10;1.00;;;14.80;99.90;;;;;;4128082;28;20550;-62
2023/06/12 09:50:36;;;;;;;5.60;0.85;;;14.80;99.90;;;;;;4127048;28;20038;-63
2023/06/12 09:52:40;;;;;;;1.25;0.90;;;14.80;99.90;;;;;;4128163;28;20030;-65
2023/06/12 09:54:44;;;;;;;1.08;0.80;;;14.70;99.90;;;;;;4128003;28;20026;-63
2023/06/12 09:56:47;;;;;;;0.90;0.60;;;14.70;99.90;;;;;;4128399;28;20081;-62
2023/06/12 09:58:49;;;;;;;5.28;1.52;;;14.70;99.90;;;;;;4128215;28;20026;-63
2023/06/12 10:00:55;;;;;;;4.68;2.33;;;14.70;99.90;;;;;;4127754;28;20026;-69
2023/06/12 10:03:00;;;;;;;2.90;1.23;;;14.70;99.90;;;;;;4128471;28;20023;-63
2023/06/12 10:05:17;;;;;;;2.10;1.40;;;14.60;99.90;;;;;;4127594;28;20035;-63
2023/06/12 10:07:28;;;;;;;1.60;0.88;;;14.70;99.90;;;;;;4128361;28;20026;-64
2023/06/12 10:09:31;;;;;;;0.98;0.90;;;14.80;99.90;;;;;;4127375;28;20104;-68
2023/06/12 10:11:34;;;;;;;0.85;0.63;;;14.80;99.90;;;;;;4128406;28;20503;-69
2023/06/12 10:13:35;;;;;;;2.72;0.68;;;14.90;99.90;;;;;;4127228;28;20089;-66
2023/06/12 10:15:37;;;;;;;1.13;0.40;;;14.90;99.90;;;;;;4128455;28;20040;-64
2023/06/12 10:17:42;;;;;;;0.60;0.40;;;15.00;99.90;;;;;;4127433;28;20054;-66
2023/06/12 10:19:47;;;;;;;0.93;0.85;;;15.00;99.90;;;;;;4128751;28;20084;-68
2023/06/12 10:21:50;;;;;;;0.60;0.50;;;15.10;99.90;;;;;;4127392;28;20030;-67
2023/06/12 10:23:53;;;;;;;0.88;0.50;;;15.10;99.90;;;;;;4128599;28;20458;-69
2023/06/12 10:25:55;;;;;;;1.40;0.68;;;15.20;99.90;;;;;;4126829;28;20442;-67
2023/06/12 10:27:57;;;;;;;2.28;0.52;;;15.20;99.90;;;;;;4128636;28;20117;-68
2023/06/12 10:29:59;;;;;;;0.82;0.35;;;15.30;99.90;;;;;;4126602;28;20046;-68
2023/06/12 10:32:08;;;;;;;0.90;0.80;;;15.40;99.90;;;;;;4127651;28;20097;-66
2023/06/12 10:34:10;;;;;;;0.50;0.43;;;15.40;99.90;;;;;;4127324;28;20549;-65
2023/06/12 10:36:12;;;;;;;1.15;0.68;;;15.50;99.90;;;;;;4128277;28;20061;-68
2023/06/12 10:38:13;;;;;;;0.95;0.68;;;15.60;99.90;;;;;;4130286;28;20049;-64